Map

Track Data

SID SEASON NUMBER BASIN SUBBASIN NAME ISO_TIME NATURE LAT LON WMO_WIND WMO_PRES WMO_AGENCY TRACK_TYPE DIST2LAND LANDFALL IFLAG USA_AGENCY USA_ATCF_ID USA_LAT USA_LON USA_RECORD USA_STATUS USA_WIND USA_PRES USA_SSHS USA_R34_NE USA_R34_SE USA_R34_SW USA_R34_NW USA_R50_NE USA_R50_SE USA_R50_SW USA_R50_NW USA_R64_NE USA_R64_SE USA_R64_SW USA_R64_NW USA_POCI USA_ROCI USA_RMW USA_EYE TOKYO_LAT TOKYO_LON TOKYO_GRADE TOKYO_WIND TOKYO_PRES TOKYO_R50_DIR TOKYO_R50_LONG TOKYO_R50_SHORT TOKYO_R30_DIR TOKYO_R30_LONG TOKYO_R30_SHORT TOKYO_LAND CMA_LAT CMA_LON CMA_CAT CMA_WIND CMA_PRES HKO_LAT HKO_LON HKO_CAT HKO_WIND HKO_PRES NEWDELHI_LAT NEWDELHI_LON NEWDELHI_GRADE NEWDELHI_WIND NEWDELHI_PRES NEWDELHI_CI NEWDELHI_DP NEWDELHI_POCI REUNION_LAT REUNION_LON REUNION_TYPE REUNION_WIND REUNION_PRES REUNION_TNUM REUNION_CI REUNION_RMW REUNION_R34_NE REUNION_R34_SE REUNION_R34_SW REUNION_R34_NW REUNION_R50_NE REUNION_R50_SE REUNION_R50_SW REUNION_R50_NW REUNION_R64_NE REUNION_R64_SE REUNION_R64_SW REUNION_R64_NW BOM_LAT BOM_LON BOM_TYPE BOM_WIND BOM_PRES BOM_TNUM BOM_CI BOM_RMW BOM_R34_NE BOM_R34_SE BOM_R34_SW BOM_R34_NW BOM_R50_NE BOM_R50_SE BOM_R50_SW BOM_R50_NW BOM_R64_NE BOM_R64_SE BOM_R64_SW BOM_R64_NW BOM_ROCI BOM_POCI BOM_EYE BOM_POS_METHOD BOM_PRES_METHOD NADI_LAT NADI_LON NADI_CAT NADI_WIND NADI_PRES WELLINGTON_LAT WELLINGTON_LON WELLINGTON_WIND WELLINGTON_PRES DS824_LAT DS824_LON DS824_STAGE DS824_WIND DS824_PRES TD9636_LAT TD9636_LON TD9636_STAGE TD9636_WIND TD9636_PRES TD9635_LAT TD9635_LON TD9635_WIND TD9635_PRES TD9635_ROCI NEUMANN_LAT NEUMANN_LON NEUMANN_CLASS NEUMANN_WIND NEUMANN_PRES MLC_LAT MLC_LON MLC_CLASS MLC_WIND MLC_PRES USA_GUST BOM_GUST BOM_GUST_PER REUNION_GUST REUNION_GUST_PER USA_SEAHGT USA_SEARAD_NE USA_SEARAD_SE USA_SEARAD_SW USA_SEARAD_NW STORM_SPEED STORM_DIR
1951277N11113 1951 75 WP MM NOT_NAMED 1951-10-03 12:00:00 NR 10.9000 113.300 main 450 447 __________O___ -1 10.9000 113.300 1 7 32
1951277N11113 1951 75 WP MM NOT_NAMED 1951-10-03 15:00:00 NR 11.2133 113.501 main 462 459 __________P___ -1 11.2133 113.501 1 7 35
1951277N11113 1951 75 WP MM NOT_NAMED 1951-10-03 18:00:00 NR 11.4512 113.693 main 473 473 __________P___ -1 11.4512 113.693 1 5 47
1951277N11113 1951 75 WP MM NOT_NAMED 1951-10-03 21:00:00 NR 11.5385 113.863 main 490 474 __________P___ -1 11.5385 113.863 1 3 100
1951277N11113 1951 75 WP MM NOT_NAMED 1951-10-04 00:00:00 NR 11.4000 114.000 main 474 440 __________O___ -1 11.4000 114.000 1 6 158
1951277N11113 1951 75 WP MM NOT_NAMED 1951-10-04 03:00:00 NR 11.0014 114.083 main 440 410 __________P___ -1 11.0014 114.083 1 9 178
1951277N11113 1951 75 WP MM NOT_NAMED 1951-10-04 06:00:00 NR 10.4721 114.045 main 420 404 __________P___ -1 10.4721 114.045 1 11 195
1951277N11113 1951 75 WP MM NOT_NAMED 1951-10-04 09:00:00 NR 9.98190 113.810 main 415 411 __________P___ -1 9.98190 113.810 1 11 224
1951277N11113 1951 75 WP MM NOT_NAMED 1951-10-04 12:00:00 NR 9.70000 113.300 main 456 403 __________O___ -1 9.70000 113.300 1 14 267
1951277N11113 1951 75 WP MM NOT_NAMED 1951-10-04 15:00:00 NR 9.90524 112.365 main 403 268 __________P___ -1 9.90524 112.365 1 22 286
1951277N11113 1951 75 WP MM NOT_NAMED 1951-10-04 18:00:00 NR 10.3202 111.171 main 268 128 __________P___ -1 10.3202 111.171 1 26 290
1951277N11113 1951 75 WP MM NOT_NAMED 1951-10-04 21:00:00 NR 10.7994 109.890 main 119 10 __________P___ -1 10.7994 109.890 1 26 290
1951277N11113 1951 75 WP MM NOT_NAMED 1951-10-05 00:00:00 NR 11.2000 108.700 main 0 0 __________O___ -1 11.2000 108.700 1 21 282
1951277N11113 1951 75 WP MM NOT_NAMED 1951-10-05 03:00:00 NR 11.2344 107.818 main 0 0 __________P___ -1 11.2344 107.818 1 16 270
1951277N11113 1951 75 WP MM NOT_NAMED 1951-10-05 06:00:00 NR 11.1878 107.059 main 0 0 __________P___ -1 11.1878 107.059 1 14 267
1951277N11113 1951 75 WP MM NOT_NAMED 1951-10-05 09:00:00 NR 11.1725 106.396 main 0 0 __________P___ -1 11.1725 106.396 1 12 275
1951277N11113 1951 75 WP MM NOT_NAMED 1951-10-05 12:00:00 NR 11.3000 105.800 main 0 0 __________O___ -1 11.3000 105.800 1 14 297
1951277N11113 1951 75 WP MM NOT_NAMED 1951-10-05 15:00:00 NR 11.7978 105.155 main 0 0 __________P___ -1 11.7978 105.155 1 17 313
1951277N11113 1951 75 WP MM NOT_NAMED 1951-10-05 18:00:00 NR 12.4348 104.573 main 0 0 __________P___ -1 12.4348 104.573 1 17 321
1951277N11113 1951 75 WP MM NOT_NAMED 1951-10-05 21:00:00 NR 13.0794 104.080 main 0 0 __________P___ -1 13.0794 104.080 1 15 324
1951277N11113 1951 75 WP MM NOT_NAMED 1951-10-06 00:00:00 NR 13.6000 103.700 main 0 0 __________O___ -1 13.6000 103.700 1 10 321
1951277N11113 1951 75 WP MM NOT_NAMED 1951-10-06 03:00:00 NR 13.8180 103.455 main 0 0 __________P___ -1 13.8180 103.455 1 5 309
1951277N11113 1951 75 WP MM NOT_NAMED 1951-10-06 06:00:00 NR 13.8991 103.321 main 0 0 __________P___ -1 13.8991 103.321 1 2 294
1951277N11113 1951 75 WP MM NOT_NAMED 1951-10-06 09:00:00 NR 13.9057 103.252 main 0 0 __________P___ -1 13.9057 103.252 1 1 270
1951277N11113 1951 75 WP MM NOT_NAMED 1951-10-06 12:00:00 NR 13.9000 103.200 main 0 0 __________O___ -1 13.9000 103.200 1 1 283
1951277N11113 1951 75 WP MM NOT_NAMED 1951-10-06 15:00:00 NR 13.9316 103.127 main 0 0 __________P___ -1 13.9316 103.127 1 2 302
1951277N11113 1951 75 WP MM NOT_NAMED 1951-10-06 18:00:00 NR 14.0004 103.031 main 0 0 __________P___ -1 14.0004 103.031 1 3 309
1951277N11113 1951 75 WP MM NOT_NAMED 1951-10-06 21:00:00 NR 14.0940 102.919 main 0 0 __________P___ -1 14.0940 102.919 1 3 312
1951277N11113 1951 75 WP MM NOT_NAMED 1951-10-07 00:00:00 NR 14.2000 102.800 main 0 __________O___ -1 14.2000 102.800 1 3 312

Digital Typhoon Data and Search

About IBTrACS Database

This database is a web-friendly format of International Best Track Archive for Climate Stewardship (IBTrACS), a global best track data archive curated by NOAA dating back to 1842.

Updated: 2021-12-03